Time;durP1;ratioP1;P1;durP2;ratioP2;P2;SDS_P1;SDS_P2;PMS_P1;PMS_P2;Temp;Humidity;BMP_temperature;BMP_pressure;BME280_temperature;BME280_humidity;BME280_pressure;Samples;Min_cycle;Max_cycle;Signal;HPM_P1;HPM_P2
2023/05/11 00:01:07;;;;;;;9.82;4.63;;;8.20;66.80;;;;;;5073699;28;20027;-78
2023/05/11 00:03:33;;;;;;;6.65;4.55;;;8.10;66.60;;;;;;5073693;28;20452;-79
2023/05/11 00:05:59;;;;;;;7.50;4.50;;;8.10;66.60;;;;;;5074970;28;20048;-78
2023/05/11 00:08:25;;;;;;;6.95;4.75;;;8.10;66.90;;;;;;5074836;28;20020;-78
2023/05/11 00:10:51;;;;;;;7.53;4.93;;;8.10;67.20;;;;;;5073525;28;20081;-79
2023/05/11 00:13:17;;;;;;;6.53;4.90;;;8.00;67.40;;;;;;5073603;28;20474;-79
2023/05/11 00:15:43;;;;;;;6.50;4.85;;;8.00;67.60;;;;;;5074523;28;20036;-78
2023/05/11 00:18:08;;;;;;;7.10;4.85;;;7.90;68.20;;;;;;5074677;28;20025;-78
2023/05/11 00:20:34;;;;;;;8.77;5.53;;;7.90;68.60;;;;;;5074617;28;20100;-78
2023/05/11 00:23:00;;;;;;;7.22;5.07;;;7.80;68.90;;;;;;5074639;28;20027;-79
2023/05/11 00:25:25;;;;;;;8.43;4.95;;;7.70;69.30;;;;;;5073426;28;20028;-77
2023/05/11 00:27:51;;;;;;;7.40;5.15;;;7.70;69.50;;;;;;5074463;28;20032;-79
2023/05/11 00:30:17;;;;;;;6.50;4.82;;;7.70;69.90;;;;;;5074180;28;20047;-77
2023/05/11 00:32:43;;;;;;;6.93;5.03;;;7.60;70.20;;;;;;5074322;28;20028;-78
2023/05/11 00:35:10;;;;;;;6.65;5.00;;;7.60;70.20;;;;;;5074053;28;20623;-78
2023/05/11 00:37:37;;;;;;;5.63;4.75;;;7.60;70.60;;;;;;5072908;28;20017;-78
2023/05/11 00:40:02;;;;;;;9.18;4.70;;;7.60;70.80;;;;;;5072953;28;20042;-78
2023/05/11 00:42:28;;;;;;;6.45;5.20;;;7.50;70.90;;;;;;5074171;28;20464;-78
2023/05/11 00:44:54;;;;;;;7.97;5.22;;;7.50;72.20;;;;;;5074082;28;20100;-77
2023/05/11 00:47:19;;;;;;;7.18;4.70;;;7.50;72.30;;;;;;5072760;28;20016;-78
2023/05/11 00:49:45;;;;;;;7.45;5.10;;;7.50;72.00;;;;;;5074101;28;20466;-78
2023/05/11 00:52:11;;;;;;;7.75;4.70;;;7.40;72.20;;;;;;5073998;28;20031;-78
2023/05/11 00:54:38;;;;;;;7.30;5.18;;;7.40;72.40;;;;;;5073933;28;20103;-77
2023/05/11 00:57:04;;;;;;;8.93;5.55;;;7.40;72.80;;;;;;5072636;28;20028;-77
2023/05/11 00:59:29;;;;;;;6.13;5.07;;;7.40;73.10;;;;;;5072546;28;20020;-78
2023/05/11 01:01:56;;;;;;;7.05;4.95;;;7.30;73.40;;;;;;5072543;28;20070;-78
2023/05/11 01:04:21;;;;;;;7.95;4.97;;;7.30;73.50;;;;;;5073679;28;20099;-78
2023/05/11 01:07:19;;;;;;;9.60;6.07;;;7.30;74.10;;;;;;5073727;28;20513;-77
2023/05/11 01:10:07;;;;;;;7.57;4.97;;;7.30;74.30;;;;;;5070200;28;20029;-77
2023/05/11 01:12:45;;;;;;;9.73;5.30;;;7.30;74.60;;;;;;5072313;28;20367;-77
2023/05/11 01:15:23;;;;;;;5.75;4.70;;;7.30;74.50;;;;;;5073583;28;20032;-78
2023/05/11 01:18:00;;;;;;;7.55;5.72;;;7.30;74.70;;;;;;5072329;28;20027;-78
2023/05/11 01:20:27;;;;;;;7.53;5.55;;;7.30;74.90;;;;;;5073581;28;20023;-77
2023/05/11 01:23:22;;;;;;;9.75;4.75;;;7.20;75.00;;;;;;5073399;28;20029;-77
2023/05/11 01:26:09;;;;;;;8.57;5.03;;;7.30;75.10;;;;;;5073418;28;20037;-78
2023/05/11 01:29:03;;;;;;;8.88;5.50;;;7.30;75.00;;;;;;5073449;28;20021;-77
2023/05/11 01:31:30;;;;;;;8.95;4.90;;;7.30;75.10;;;;;;5073383;28;20071;-78
2023/05/11 01:34:11;;;;;;;7.28;5.18;;;7.30;75.10;;;;;;5090859;28;20127;-77
2023/05/11 01:36:42;;;;;;;7.80;5.10;;;7.30;75.10;;;;;;5092224;28;20036;-77
2023/05/11 01:39:11;;;;;;;8.75;4.68;;;7.30;74.80;;;;;;5092304;28;20053;-78
2023/05/11 01:41:39;;;;;;;9.02;5.25;;;7.30;74.60;;;;;;5092028;28;20405;-78
2023/05/11 01:44:08;;;;;;;9.40;5.78;;;7.30;74.50;;;;;;5091705;28;20051;-78
2023/05/11 01:46:34;;;;;;;8.30;5.32;;;7.20;74.30;;;;;;5093471;28;20393;-77
2023/05/11 01:49:04;;;;;;;7.80;5.60;;;7.20;74.70;;;;;;5093468;28;20069;-78
2023/05/11 01:51:34;;;;;;;6.28;5.05;;;7.30;75.00;;;;;;5093395;28;20028;-78
2023/05/11 01:54:01;;;;;;;7.40;5.00;;;7.20;74.80;;;;;;5093297;28;20412;-79
2023/05/11 01:56:27;;;;;;;6.18;5.25;;;7.20;75.10;;;;;;5091971;28;20040;-77
2023/05/11 01:58:55;;;;;;;11.68;5.40;;;7.20;75.00;;;;;;5093328;28;20032;-77
2023/05/11 02:01:22;;;;;;;7.47;4.97;;;7.10;75.50;;;;;;5091969;28;20031;-77
2023/05/11 02:03:50;;;;;;;8.93;5.45;;;7.10;75.60;;;;;;5091944;28;20035;-78
2023/05/11 02:06:18;;;;;;;6.10;4.97;;;7.10;76.10;;;;;;5093289;28;20020;-78
2023/05/11 02:08:44;;;;;;;7.85;5.53;;;7.00;76.00;;;;;;5091943;28;20020;-77
2023/05/11 02:11:11;;;;;;;6.88;5.13;;;7.00;76.60;;;;;;5093139;28;20389;-78
2023/05/11 02:13:40;;;;;;;9.65;5.65;;;7.00;76.80;;;;;;5093152;28;20078;-78
2023/05/11 02:16:07;;;;;;;8.05;5.03;;;7.00;77.30;;;;;;5091706;28;20024;-78
2023/05/11 02:18:34;;;;;;;12.88;5.95;;;6.90;77.30;;;;;;5093097;28;20027;-78
2023/05/11 02:21:02;;;;;;;10.13;6.30;;;7.00;77.10;;;;;;5091871;28;20020;-77
2023/05/11 02:23:30;;;;;;;7.28;5.35;;;7.00;77.30;;;;;;5093094;28;20016;-78
2023/05/11 02:25:56;;;;;;;8.32;5.88;;;7.00;77.00;;;;;;5093149;28;20020;-78
2023/05/11 02:28:22;;;;;;;7.75;5.15;;;6.90;78.20;;;;;;5091730;28;20031;-79
2023/05/11 02:30:51;;;;;;;7.85;5.60;;;6.90;78.00;;;;;;5093042;28;20028;-78
2023/05/11 02:33:29;;;;;;;7.80;5.10;;;6.90;78.20;;;;;;5091499;28;20063;-79
2023/05/11 02:35:55;;;;;;;9.48;6.13;;;6.90;78.20;;;;;;5091655;28;20374;-79
2023/05/11 02:38:29;;;;;;;7.00;5.05;;;6.90;78.20;;;;;;5092922;28;20063;-79
2023/05/11 02:40:58;;;;;;;7.97;5.82;;;6.90;78.60;;;;;;5092945;28;20020;-79
2023/05/11 02:43:28;;;;;;;9.85;5.40;;;6.90;78.90;;;;;;5091710;28;20024;-79
2023/05/11 02:46:01;;;;;;;8.43;5.55;;;6.90;79.30;;;;;;5091862;28;20115;-78
2023/05/11 02:48:28;;;;;;;;;;;6.80;79.10;;;;;;5093425;28;20028;-78
2023/05/11 02:50:55;;;;;;;9.45;5.35;;;6.90;78.90;;;;;;5092895;28;19904;-78
2023/05/11 02:53:26;;;;;;;7.22;5.13;;;6.80;79.00;;;;;;5091885;28;20063;-78
2023/05/11 02:55:53;;;;;;;7.10;5.63;;;6.80;79.10;;;;;;5095248;28;20084;-78
2023/05/11 02:58:19;;;;;;;11.30;5.28;;;6.80;78.80;;;;;;5095139;28;20355;-79
2023/05/11 03:00:45;;;;;;;8.10;6.00;;;6.80;79.10;;;;;;5095193;28;20077;-78
2023/05/11 03:03:11;;;;;;;7.07;5.70;;;6.90;78.40;;;;;;5096396;28;20149;-78
2023/05/11 03:05:37;;;;;;;10.10;5.93;;;6.80;78.80;;;;;;5095154;28;20118;-78
2023/05/11 03:08:03;;;;;;;11.32;5.85;;;6.80;78.80;;;;;;5096290;28;20035;-78
2023/05/11 03:10:28;;;;;;;7.75;5.50;;;6.80;78.40;;;;;;5095088;28;20035;-78
2023/05/11 03:12:55;;;;;;;8.40;5.60;;;6.90;79.30;;;;;;5095157;28;20094;-78
2023/05/11 03:15:21;;;;;;;9.85;6.10;;;6.90;79.10;;;;;;5096228;28;20035;-78
2023/05/11 03:17:49;;;;;;;9.30;5.53;;;6.80;78.90;;;;;;5096198;28;20016;-78
2023/05/11 03:20:18;;;;;;;9.82;5.15;;;6.80;79.10;;;;;;5094819;28;20030;-78
2023/05/11 03:22:45;;;;;;;9.18;5.90;;;6.80;79.00;;;;;;5094709;28;20139;-78
2023/05/11 03:25:13;;;;;;;14.02;6.40;;;6.80;79.50;;;;;;5094842;28;20056;-78
2023/05/11 03:27:41;;;;;;;10.13;6.03;;;6.70;79.90;;;;;;5094588;28;20431;-78
2023/05/11 03:30:08;;;;;;;8.57;6.25;;;6.70;80.70;;;;;;5095974;28;20023;-78
2023/05/11 03:32:35;;;;;;;8.75;6.00;;;6.70;81.00;;;;;;5094505;28;20028;-78
2023/05/11 03:35:01;;;;;;;10.40;6.65;;;6.80;81.20;;;;;;5094416;28;20058;-78
2023/05/11 03:37:30;;;;;;;8.77;6.38;;;6.70;81.30;;;;;;5095714;28;20024;-78
2023/05/11 03:39:58;;;;;;;11.90;6.72;;;6.70;81.60;;;;;;5095561;28;20084;-78
2023/05/11 03:42:25;;;;;;;9.57;6.25;;;6.80;82.00;;;;;;5094437;28;20024;-78
2023/05/11 03:44:54;;;;;;;8.90;6.28;;;6.80;81.90;;;;;;5095584;28;20022;-79
2023/05/11 03:47:21;;;;;;;9.90;6.22;;;6.80;81.90;;;;;;5095456;28;20051;-79
2023/05/11 03:49:48;;;;;;;8.40;6.72;;;6.80;82.50;;;;;;5095606;28;20028;-79
2023/05/11 03:52:14;;;;;;;8.23;6.57;;;6.80;81.70;;;;;;5094203;28;20039;-78
2023/05/11 03:54:41;;;;;;;12.50;6.43;;;6.80;82.30;;;;;;5095383;28;20024;-78
2023/05/11 03:57:08;;;;;;;7.18;5.60;;;6.90;82.50;;;;;;5094132;28;20024;-78
2023/05/11 03:59:34;;;;;;;10.38;6.43;;;7.00;82.00;;;;;;5095028;28;20031;-78
2023/05/11 04:02:01;;;;;;;8.48;6.10;;;7.00;81.00;;;;;;5093911;28;20468;-79
2023/05/11 04:04:30;;;;;;;8.60;6.38;;;7.10;80.70;;;;;;5094011;28;20035;-78
2023/05/11 04:07:00;;;;;;;10.90;6.57;;;7.10;80.00;;;;;;5094574;28;20520;-79
2023/05/11 04:09:25;;;;;;;9.90;6.50;;;7.30;80.00;;;;;;5093525;28;20032;-79
2023/05/11 04:11:51;;;;;;;11.35;7.30;;;7.50;79.20;;;;;;5093929;28;20038;-78
2023/05/11 04:14:17;;;;;;;9.82;6.75;;;7.70;78.20;;;;;;5093753;28;20044;-78
2023/05/11 04:16:43;;;;;;;12.60;6.40;;;7.90;77.40;;;;;;5093601;28;20024;-78
2023/05/11 04:19:09;;;;;;;11.73;7.10;;;8.10;75.40;;;;;;5094990;28;20024;-78
2023/05/11 04:21:35;;;;;;;11.60;6.43;;;8.30;74.20;;;;;;5094897;28;20018;-78
2023/05/11 04:24:01;;;;;;;8.90;6.53;;;8.40;72.90;;;;;;5093548;28;20115;-78
2023/05/11 04:26:26;;;;;;;7.53;5.88;;;8.50;72.90;;;;;;5094906;28;20024;-78
2023/05/11 04:28:52;;;;;;;10.40;7.20;;;8.60;71.80;;;;;;5093312;28;20016;-78
2023/05/11 04:31:18;;;;;;;10.20;7.28;;;8.60;71.60;;;;;;5093592;28;20032;-78
2023/05/11 04:33:43;;;;;;;13.38;7.28;;;8.70;71.40;;;;;;5094520;28;20102;-79
2023/05/11 04:36:09;;;;;;;8.18;6.70;;;8.60;71.20;;;;;;5094532;28;20032;-78
2023/05/11 04:38:34;;;;;;;9.05;6.93;;;8.60;71.40;;;;;;5093218;28;20023;-78
2023/05/11 04:41:07;;;;;;;14.98;6.68;;;8.60;71.50;;;;;;5094578;28;20101;-78
2023/05/11 04:43:33;;;;;;;;;;;8.70;71.80;;;;;;5093647;28;20371;-78
2023/05/11 04:45:59;;;;;;;11.02;6.88;;;8.90;71.90;;;;;;5093144;28;19911;-78
2023/05/11 04:48:25;;;;;;;13.05;7.53;;;8.90;71.00;;;;;;5093114;28;20016;-78
2023/05/11 04:50:52;;;;;;;7.82;6.72;;;8.90;70.80;;;;;;5094407;28;20028;-79
2023/05/11 04:53:17;;;;;;;13.02;6.93;;;9.00;70.70;;;;;;5093027;28;20024;-79
2023/05/11 04:55:43;;;;;;;11.88;6.88;;;9.10;70.20;;;;;;5092809;28;20031;-79
2023/05/11 04:58:09;;;;;;;8.10;6.07;;;9.30;70.20;;;;;;5094150;28;20055;-79
2023/05/11 05:00:35;;;;;;;10.35;7.72;;;9.30;69.50;;;;;;5092865;28;20023;-78
2023/05/11 05:03:01;;;;;;;8.82;6.97;;;9.40;69.20;;;;;;5070423;28;20025;-79
2023/05/11 05:05:27;;;;;;;10.35;7.65;;;9.60;68.90;;;;;;5067072;28;20028;-78
2023/05/11 05:07:53;;;;;;;13.07;6.90;;;9.60;68.30;;;;;;5073565;28;20367;-78
2023/05/11 05:10:18;;;;;;;9.82;7.22;;;9.50;67.90;;;;;;5073582;28;20016;-78
2023/05/11 05:12:44;;;;;;;10.13;6.90;;;9.50;68.20;;;;;;5072190;28;20133;-79
2023/05/11 05:15:10;;;;;;;9.05;6.65;;;9.50;68.30;;;;;;5072743;28;20111;-80
2023/05/11 05:17:35;;;;;;;11.18;7.53;;;9.50;68.60;;;;;;5071184;28;20027;-78
2023/05/11 05:20:03;;;;;;;20.30;7.38;;;9.50;68.70;;;;;;5073473;28;20020;-78
2023/05/11 05:22:29;;;;;;;11.77;7.00;;;9.50;68.80;;;;;;5073390;28;20055;-79
2023/05/11 05:24:55;;;;;;;10.10;6.53;;;9.50;69.10;;;;;;5072676;28;20029;-79
2023/05/11 05:27:21;;;;;;;12.48;6.95;;;9.50;69.60;;;;;;5082772;28;20024;-80
2023/05/11 05:29:47;;;;;;;13.68;7.30;;;9.60;70.20;;;;;;5072510;28;20110;-77
2023/05/11 05:32:12;;;;;;;12.75;7.03;;;9.70;70.30;;;;;;5073061;28;20056;-78
2023/05/11 05:34:38;;;;;;;13.10;6.55;;;9.80;69.60;;;;;;5071006;28;20049;-79
2023/05/11 05:37:04;;;;;;;13.57;6.57;;;9.90;69.40;;;;;;5071483;28;20508;-79
2023/05/11 05:39:30;;;;;;;81.75;15.45;;;10.10;69.30;;;;;;5070071;28;20031;-79
2023/05/11 05:41:55;;;;;;;17.05;7.05;;;10.30;69.50;;;;;;5069349;28;20055;-78
2023/05/11 05:44:21;;;;;;;7.55;5.85;;;10.50;69.30;;;;;;5068111;28;20036;-77
2023/05/11 05:46:46;;;;;;;9.48;5.97;;;10.60;68.20;;;;;;5071763;28;20032;-78
2023/05/11 05:49:12;;;;;;;15.27;6.93;;;10.70;66.90;;;;;;5072468;28;20082;-78
2023/05/11 05:51:38;;;;;;;11.93;6.05;;;10.80;66.70;;;;;;5071502;28;20761;-78
2023/05/11 05:54:03;;;;;;;11.20;6.05;;;11.00;66.50;;;;;;5068013;28;20027;-79
2023/05/11 05:56:30;;;;;;;8.88;6.10;;;11.10;65.80;;;;;;5068430;28;20078;-78
2023/05/11 05:58:56;;;;;;;10.30;5.55;;;11.20;65.30;;;;;;5069020;28;20020;-79
2023/05/11 06:01:22;;;;;;;10.65;5.82;;;11.30;64.80;;;;;;5069214;28;20017;-78
2023/05/11 06:03:47;;;;;;;7.68;5.25;;;11.50;64.90;;;;;;5069358;28;20538;-78
2023/05/11 06:06:13;;;;;;;12.05;5.63;;;11.50;64.30;;;;;;5070816;28;20024;-79
2023/05/11 06:08:38;;;;;;;11.68;6.55;;;11.60;65.10;;;;;;5071261;28;20602;-78
2023/05/11 06:11:04;;;;;;;7.38;5.55;;;11.70;64.20;;;;;;5073060;28;20070;-78
2023/05/11 06:13:30;;;;;;;14.00;6.18;;;11.90;63.90;;;;;;5070661;28;20107;-79
2023/05/11 06:15:56;;;;;;;7.38;6.07;;;12.00;63.40;;;;;;5072761;28;20029;-78
2023/05/11 06:18:21;;;;;;;8.32;6.22;;;12.10;63.90;;;;;;5070378;28;20017;-79
2023/05/11 06:20:47;;;;;;;14.48;6.82;;;12.40;64.00;;;;;;5069749;28;20497;-78
2023/05/11 06:23:12;;;;;;;7.70;5.47;;;12.60;64.00;;;;;;5071098;28;20029;-78
2023/05/11 06:25:38;;;;;;;14.00;6.63;;;12.80;62.20;;;;;;5071037;28;20077;-79
2023/05/11 06:28:04;;;;;;;20.48;8.82;;;12.90;62.60;;;;;;5070913;28;20474;-79
2023/05/11 06:30:30;;;;;;;9.90;6.18;;;12.90;62.60;;;;;;5073529;28;20016;-79
2023/05/11 06:32:55;;;;;;;14.95;6.60;;;12.90;62.40;;;;;;5073591;28;20024;-78
2023/05/11 06:35:21;;;;;;;22.88;7.13;;;13.00;61.10;;;;;;5074838;28;20057;-78
2023/05/11 06:37:47;;;;;;;11.38;6.50;;;13.20;61.40;;;;;;5074691;28;20497;-79
2023/05/11 06:40:15;;;;;;;12.50;6.50;;;13.40;61.40;;;;;;5073796;28;20035;-79
2023/05/11 06:42:40;;;;;;;16.02;6.68;;;13.40;59.40;;;;;;5074920;28;20114;-78
2023/05/11 06:45:07;;;;;;;11.23;6.80;;;13.50;60.30;;;;;;5075382;28;20475;-78
2023/05/11 06:47:32;;;;;;;9.02;5.50;;;13.60;60.20;;;;;;5076458;28;20113;-78
2023/05/11 06:49:58;;;;;;;6.32;4.93;;;13.60;59.80;;;;;;5076532;28;20052;-79
2023/05/11 06:52:23;;;;;;;6.15;4.82;;;13.80;60.00;;;;;;5076438;28;20050;-79
2023/05/11 06:54:49;;;;;;;7.07;4.30;;;13.90;58.60;;;;;;5076285;28;20021;-79
2023/05/11 06:57:15;;;;;;;8.52;4.80;;;14.10;58.60;;;;;;5075075;28;20409;-79
2023/05/11 06:59:41;;;;;;;6.10;3.95;;;14.30;58.60;;;;;;5076373;28;20079;-79
2023/05/11 07:02:06;;;;;;;6.90;4.25;;;14.40;57.90;;;;;;5074936;28;20030;-78
2023/05/11 07:04:32;;;;;;;6.30;4.78;;;14.60;57.40;;;;;;5076396;28;20036;-78
2023/05/11 07:06:58;;;;;;;4.28;3.88;;;14.70;57.50;;;;;;5074804;28;20504;-78
2023/05/11 07:09:23;;;;;;;5.93;4.20;;;14.60;56.80;;;;;;5076210;28;20017;-78
2023/05/11 07:11:50;;;;;;;8.77;4.25;;;14.70;56.90;;;;;;5076099;28;20052;-78
2023/05/11 07:14:16;;;;;;;5.25;4.50;;;14.80;56.60;;;;;;5076125;28;20425;-78
2023/05/11 07:16:42;;;;;;;5.95;3.30;;;14.80;56.20;;;;;;5074719;28;20040;-78
2023/05/11 07:19:08;;;;;;;6.63;4.03;;;14.90;56.30;;;;;;5075994;28;20029;-79
2023/05/11 07:21:35;;;;;;;5.53;4.13;;;15.00;56.50;;;;;;5074709;28;20078;-78
2023/05/11 07:24:00;;;;;;;7.88;4.10;;;15.10;56.00;;;;;;5075888;28;20131;-79
2023/05/11 07:26:26;;;;;;;7.03;4.47;;;15.20;56.00;;;;;;5075911;28;20048;-78
2023/05/11 07:28:52;;;;;;;5.57;4.20;;;15.40;55.90;;;;;;5074483;28;20021;-79
2023/05/11 07:31:17;;;;;;;9.15;4.00;;;15.60;56.50;;;;;;5074526;28;20043;-79
2023/05/11 07:33:43;;;;;;;9.15;4.18;;;15.60;55.00;;;;;;5074296;28;20053;-79
2023/05/11 07:36:08;;;;;;;6.75;4.32;;;15.80;55.40;;;;;;5075651;28;20371;-79
2023/05/11 07:38:35;;;;;;;5.63;4.15;;;15.90;54.60;;;;;;5074573;28;20009;-79
2023/05/11 07:41:01;;;;;;;8.80;4.25;;;15.80;54.70;;;;;;5073311;28;20482;-78
2023/05/11 07:43:26;;;;;;;7.53;3.95;;;15.80;55.00;;;;;;5075581;28;20023;-79
2023/05/11 07:45:52;;;;;;;7.65;4.40;;;15.90;55.90;;;;;;5075625;28;20100;-78
2023/05/11 07:48:17;;;;;;;6.78;3.75;;;15.90;55.10;;;;;;5074261;28;20060;-79
2023/05/11 07:50:43;;;;;;;5.18;3.80;;;16.10;55.40;;;;;;5074187;28;20025;-79
2023/05/11 07:53:09;;;;;;;8.85;3.90;;;16.00;55.40;;;;;;5075389;28;20027;-79
2023/05/11 07:55:35;;;;;;;6.45;3.97;;;16.30;56.00;;;;;;5073967;28;20025;-79
2023/05/11 07:58:01;;;;;;;6.15;4.18;;;16.30;55.30;;;;;;5075397;28;20561;-79
2023/05/11 08:00:26;;;;;;;5.35;4.30;;;16.30;54.70;;;;;;5074091;28;20024;-79
2023/05/11 08:02:52;;;;;;;6.47;4.18;;;16.30;55.60;;;;;;5073899;28;20025;-79
2023/05/11 08:05:19;;;;;;;5.35;3.70;;;16.30;55.10;;;;;;5075182;28;20046;-79
2023/05/11 08:07:45;;;;;;;6.32;4.45;;;16.40;55.10;;;;;;5073753;28;20029;-79
2023/05/11 08:10:11;;;;;;;8.27;3.65;;;16.40;54.40;;;;;;5073728;28;20025;-79
2023/05/11 08:12:37;;;;;;;6.13;3.35;;;16.40;55.00;;;;;;5073746;28;20524;-79
2023/05/11 08:15:03;;;;;;;4.22;3.17;;;16.50;54.40;;;;;;5074964;28;20462;-79
2023/05/11 08:17:29;;;;;;;6.45;3.30;;;16.70;54.20;;;;;;5074759;28;20036;-79
2023/05/11 08:19:55;;;;;;;4.78;3.42;;;16.70;53.50;;;;;;5074809;28;20020;-79
2023/05/11 08:22:21;;;;;;;6.00;3.70;;;16.90;53.60;;;;;;5074730;28;20430;-79
2023/05/11 08:24:47;;;;;;;5.38;3.45;;;17.00;52.70;;;;;;5074861;28;20029;-79
2023/05/11 08:27:14;;;;;;;5.13;3.53;;;17.20;53.20;;;;;;5074684;28;20441;-79
2023/05/11 08:29:39;;;;;;;14.18;3.83;;;17.30;52.80;;;;;;5074686;28;20547;-79
2023/05/11 08:32:05;;;;;;;4.82;3.00;;;17.50;50.60;;;;;;5074587;28;20017;-79
2023/05/11 08:34:31;;;;;;;3.30;3.00;;;17.50;49.50;;;;;;5073153;28;20509;-78
2023/05/11 08:36:57;;;;;;;7.35;3.00;;;17.50;48.30;;;;;;5074534;28;20060;-79
2023/05/11 08:39:23;;;;;;;5.47;3.40;;;17.60;50.20;;;;;;5073167;28;20024;-78
2023/05/11 08:41:51;;;;;;;6.85;3.90;;;17.60;50.50;;;;;;5073179;28;20016;-79
2023/05/11 08:44:18;;;;;;;6.47;2.88;;;17.20;50.20;;;;;;5073160;28;20066;-79
2023/05/11 08:46:47;;;;;;;3.95;2.60;;;17.30;51.00;;;;;;5074323;28;20431;-79
2023/05/11 08:49:13;;;;;;;3.35;2.65;;;17.50;48.70;;;;;;5073041;28;20052;-79
2023/05/11 08:51:39;;;;;;;5.18;3.60;;;17.50;47.00;;;;;;5072592;28;20024;-79
2023/05/11 08:54:06;;;;;;;5.22;3.00;;;17.40;49.00;;;;;;5074144;28;20482;-79
2023/05/11 08:56:35;;;;;;;4.47;2.92;;;17.60;50.40;;;;;;5074132;28;20397;-79
2023/05/11 08:59:03;;;;;;;9.82;4.03;;;17.80;49.40;;;;;;5074029;28;20494;-79
2023/05/11 09:01:30;;;;;;;6.10;2.70;;;17.80;49.60;;;;;;5072520;28;20093;-79
2023/05/11 09:03:57;;;;;;;3.10;2.42;;;17.90;48.50;;;;;;5071143;28;20170;-79
2023/05/11 09:06:24;;;;;;;3.17;2.35;;;18.00;46.00;;;;;;5071684;28;20055;-79
2023/05/11 09:08:49;;;;;;;4.32;2.50;;;17.90;45.30;;;;;;5073769;28;20032;-79
2023/05/11 09:11:15;;;;;;;3.67;2.90;;;18.10;45.70;;;;;;5072630;28;20028;-79
2023/05/11 09:13:41;;;;;;;2.95;2.17;;;18.20;46.30;;;;;;5072771;28;20034;-79
2023/05/11 09:16:07;;;;;;;2.38;2.17;;;18.10;46.10;;;;;;5073020;28;20039;-79
2023/05/11 09:18:32;;;;;;;5.38;2.20;;;18.20;44.10;;;;;;5073704;28;20463;-79
2023/05/11 09:21:01;;;;;;;3.50;2.47;;;18.30;43.80;;;;;;5073615;28;20032;-79
2023/05/11 09:23:27;;;;;;;3.58;1.88;;;18.40;42.30;;;;;;5072390;28;20055;-79
2023/05/11 09:25:53;;;;;;;3.95;2.25;;;18.60;41.90;;;;;;5073624;28;20020;-79
2023/05/11 09:28:25;;;;;;;3.95;2.20;;;18.60;41.70;;;;;;5072396;28;20027;-79
2023/05/11 09:30:52;;;;;;;5.00;2.20;;;18.70;42.10;;;;;;5073660;28;20026;-79
2023/05/11 09:33:23;;;;;;;2.90;2.22;;;18.70;39.50;;;;;;5073365;28;20028;-79
2023/05/11 09:35:49;;;;;;;4.63;2.22;;;18.60;40.70;;;;;;5073408;28;20119;-79
2023/05/11 09:38:17;;;;;;;6.00;2.92;;;18.70;41.30;;;;;;5072152;28;20112;-79
2023/05/11 09:40:55;;;;;;;4.85;2.78;;;18.80;43.00;;;;;;5072213;28;20025;-79
2023/05/11 09:43:29;;;;;;;4.80;2.50;;;18.80;43.70;;;;;;5073562;28;20020;-79
2023/05/11 09:46:05;;;;;;;2.53;2.00;;;19.00;43.90;;;;;;5072355;28;20432;-79
2023/05/11 09:48:32;;;;;;;8.00;2.60;;;18.90;42.10;;;;;;5073404;28;20024;-79
2023/05/11 09:51:06;;;;;;;5.68;3.03;;;18.80;42.00;;;;;;5072062;28;20038;-79
2023/05/11 09:53:44;;;;;;;3.33;2.40;;;18.50;41.70;;;;;;5072086;28;20021;-79
2023/05/11 09:56:11;;;;;;;4.60;2.25;;;18.70;41.90;;;;;;5073188;28;20132;-78
2023/05/11 09:58:49;;;;;;;4.38;1.80;;;18.80;42.50;;;;;;5071929;28;20077;-79
2023/05/11 10:01:17;;;;;;;3.35;2.00;;;18.80;42.00;;;;;;5071921;28;20119;-79
2023/05/11 10:03:50;;;;;;;2.28;2.08;;;18.60;39.40;;;;;;5075875;28;20020;-79
2023/05/11 10:06:16;;;;;;;5.78;2.03;;;18.60;38.20;;;;;;5078577;28;20051;-79
2023/05/11 10:08:42;;;;;;;1.40;1.40;;;18.70;39.20;;;;;;5079771;28;20500;-79
2023/05/11 10:11:08;;;;;;;2.40;2.20;;;18.70;38.00;;;;;;5079883;28;20028;-79
2023/05/11 10:13:36;;;;;;;3.20;2.05;;;18.70;38.30;;;;;;5079771;28;20114;-78
2023/05/11 10:16:05;;;;;;;3.97;1.80;;;18.80;38.70;;;;;;5078394;28;20037;-78
2023/05/11 10:18:32;;;;;;;3.85;1.77;;;18.70;39.00;;;;;;5078452;28;20060;-79
2023/05/11 10:20:58;;;;;;;4.85;2.33;;;18.60;38.10;;;;;;5079649;28;20382;-78
2023/05/11 10:23:27;;;;;;;6.30;2.22;;;18.60;40.20;;;;;;5078425;28;20025;-78
2023/05/11 10:25:53;;;;;;;1.70;1.60;;;18.60;39.10;;;;;;5078438;28;20482;-78
2023/05/11 10:28:21;;;;;;;3.03;2.30;;;18.50;39.30;;;;;;5079618;28;20024;-79
2023/05/11 10:30:47;;;;;;;2.08;1.90;;;18.70;40.80;;;;;;5077881;28;20033;-77
2023/05/11 10:33:13;;;;;;;4.65;1.85;;;18.80;40.30;;;;;;5076449;28;20099;-78
2023/05/11 10:35:38;;;;;;;5.00;2.13;;;18.60;38.70;;;;;;5077119;28;20187;-79
2023/05/11 10:38:06;;;;;;;2.25;2.05;;;18.70;37.90;;;;;;5075536;28;20036;-78
2023/05/11 10:40:41;;;;;;;1.95;1.42;;;18.80;38.10;;;;;;5076330;28;20021;-79
2023/05/11 10:43:22;;;;;;;3.63;2.33;;;18.80;38.10;;;;;;5074660;28;20117;-79
2023/05/11 10:46:13;;;;;;;1.60;1.50;;;18.80;37.90;;;;;;5076758;28;20029;-78
2023/05/11 10:48:49;;;;;;;2.60;1.73;;;18.80;38.70;;;;;;5076879;28;20036;-79
2023/05/11 10:51:33;;;;;;;2.83;2.05;;;18.80;38.60;;;;;;5078085;28;20016;-78
2023/05/11 10:54:10;;;;;;;1.70;1.60;;;18.90;40.00;;;;;;5076721;28;20032;-79
2023/05/11 10:57:06;;;;;;;3.17;1.58;;;18.70;38.90;;;;;;5077259;28;20036;-79
2023/05/11 10:59:38;;;;;;;3.90;1.83;;;18.70;39.40;;;;;;5076633;28;20482;-79
2023/05/11 11:02:04;;;;;;;3.95;1.88;;;18.80;39.50;;;;;;5076867;28;20024;-79
2023/05/11 11:04:46;;;;;;;2.38;2.20;;;18.80;39.30;;;;;;5078189;28;20094;-78
2023/05/11 11:07:16;;;;;;;4.37;2.17;;;18.80;39.30;;;;;;5076181;28;20024;-78
2023/05/11 11:09:56;;;;;;;2.80;1.92;;;18.70;40.80;;;;;;5075193;28;20451;-78
2023/05/11 11:12:28;;;;;;;2.10;1.90;;;18.60;41.10;;;;;;5072905;28;20027;-78
2023/05/11 11:14:59;;;;;;;4.72;1.92;;;18.70;41.80;;;;;;5074309;28;20125;-78
2023/05/11 11:17:30;;;;;;;6.35;2.85;;;18.60;41.10;;;;;;5072918;28;20047;-78
2023/05/11 11:19:57;;;;;;;3.38;2.28;;;18.60;41.90;;;;;;5071800;28;20040;-77
2023/05/11 11:22:49;;;;;;;3.67;2.47;;;18.70;41.70;;;;;;5073704;28;20023;-77
2023/05/11 11:26:01;;;;;;;2.28;2.13;;;18.90;42.40;;;;;;5072953;28;20048;-78
2023/05/11 11:28:47;;;;;;;4.45;2.83;;;18.90;42.20;;;;;;5075457;28;20170;-77
2023/05/11 11:31:27;;;;;;;5.88;3.20;;;19.00;42.70;;;;;;5074455;28;20021;-77
2023/05/11 11:34:00;;;;;;;2.90;2.38;;;18.80;43.80;;;;;;5075429;28;20048;-78
2023/05/11 11:36:53;;;;;;;3.75;3.42;;;18.80;43.20;;;;;;5068381;28;20401;-78
2023/05/11 11:39:26;;;;;;;5.05;2.95;;;18.80;43.40;;;;;;5073867;28;20025;-79
2023/05/11 11:42:02;;;;;;;6.40;2.85;;;18.60;43.30;;;;;;5075284;28;20535;-79
2023/05/11 11:44:28;;;;;;;6.57;3.65;;;18.80;45.50;;;;;;5075351;28;20031;-79
2023/05/11 11:47:25;;;;;;;6.03;3.10;;;18.80;44.30;;;;;;5074711;28;20380;-78
2023/05/11 11:49:53;;;;;;;7.10;2.72;;;18.80;44.80;;;;;;5068624;28;20033;-79
2023/05/11 11:52:28;;;;;;;4.18;2.80;;;18.90;44.20;;;;;;5073647;28;20031;-78
2023/05/11 11:54:55;;;;;;;3.13;2.75;;;19.00;44.70;;;;;;5071516;28;20024;-78
2023/05/11 11:57:36;;;;;;;2.97;2.67;;;19.00;42.90;;;;;;5074592;28;20029;-78
2023/05/11 12:00:05;;;;;;;2.90;2.70;;;19.10;43.80;;;;;;5073554;28;20027;-79
2023/05/11 12:02:32;;;;;;;2.80;2.53;;;18.90;43.50;;;;;;5074522;28;20021;-78
2023/05/11 12:05:13;;;;;;;4.57;3.13;;;18.80;44.00;;;;;;5074633;28;20033;-78
2023/05/11 12:07:48;;;;;;;4.07;3.47;;;18.40;44.20;;;;;;5073283;28;20075;-77
2023/05/11 12:10:19;;;;;;;25.15;5.57;;;18.40;45.00;;;;;;5072068;28;20021;-77
2023/05/11 12:12:46;;;;;;;4.28;2.80;;;18.60;45.10;;;;;;5070998;28;20027;-78
2023/05/11 12:15:41;;;;;;;6.03;2.80;;;18.80;45.40;;;;;;5073189;28;20021;-77
2023/05/11 12:18:20;;;;;;;4.57;2.53;;;19.10;45.40;;;;;;5068920;28;20056;-77
2023/05/11 12:20:45;;;;;;;5.97;3.30;;;19.20;44.40;;;;;;5073025;28;20024;-77
2023/05/11 12:23:13;;;;;;;3.42;2.83;;;19.40;45.00;;;;;;5073100;28;20029;-78
2023/05/11 12:25:38;;;;;;;8.18;3.33;;;19.30;44.30;;;;;;5074408;28;20504;-78
2023/05/11 12:28:04;;;;;;;2.78;2.50;;;18.80;43.80;;;;;;5073824;28;20025;-79
2023/05/11 12:30:32;;;;;;;3.08;2.50;;;18.70;44.50;;;;;;5073110;28;20470;-79
2023/05/11 12:32:58;;;;;;;9.18;3.20;;;18.60;44.40;;;;;;5074155;28;20035;-79
2023/05/11 12:35:26;;;;;;;5.40;2.20;;;18.90;44.70;;;;;;5067083;28;20040;-79
2023/05/11 12:37:52;;;;;;;3.53;2.60;;;19.00;43.90;;;;;;5072217;28;20043;-79
2023/05/11 12:40:18;;;;;;;3.85;2.30;;;19.20;44.20;;;;;;5072270;28;20052;-79
2023/05/11 12:42:58;;;;;;;2.58;2.33;;;19.40;42.80;;;;;;5073967;28;20032;-79
2023/05/11 12:45:28;;;;;;;2.42;2.22;;;19.60;43.30;;;;;;5073834;28;20086;-77
2023/05/11 12:47:55;;;;;;;3.75;1.95;;;19.70;42.90;;;;;;5073593;28;20020;-76
2023/05/11 12:50:21;;;;;;;6.22;2.40;;;19.50;40.60;;;;;;5072867;28;20466;-75
2023/05/11 12:52:49;;;;;;;2.15;1.95;;;19.60;40.60;;;;;;5069211;28;20028;-74
2023/05/11 12:55:28;;;;;;;2.20;1.88;;;19.90;41.00;;;;;;5072389;28;20036;-76
2023/05/11 12:58:17;;;;;;;4.03;1.88;;;19.90;39.30;;;;;;5053821;28;20021;-76